createdAt,value
2022-12-01T00:00:01.605Z,92.3
2022-12-01T00:07:01.521Z,92.225
2022-12-01T00:14:01.589Z,92.278
2022-12-01T00:21:01.630Z,92.278
2022-12-01T00:28:02.115Z,92.289
2022-12-01T00:35:02.051Z,92.289
2022-12-01T00:42:02.239Z,92.291
2022-12-01T00:49:02.200Z,92.291
2022-12-01T00:56:02.265Z,92.238
2022-12-01T01:00:01.828Z,92.238
2022-12-01T01:07:02.127Z,92.163
2022-12-01T01:14:02.086Z,92.163
2022-12-01T01:21:01.713Z,91.961
2022-12-01T01:28:02.033Z,91.961
2022-12-01T01:35:02.292Z,91.869
2022-12-01T01:42:01.745Z,91.869
2022-12-01T01:49:02.012Z,91.885
2022-12-01T01:56:01.941Z,91.824
2022-12-01T02:00:02.608Z,91.824
2022-12-01T02:07:02.087Z,91.824
2022-12-01T02:14:02.016Z,91.955
2022-12-01T02:21:02.103Z,91.955
2022-12-01T02:28:01.720Z,92.434
2022-12-01T02:35:01.652Z,92.656
2022-12-01T02:42:01.947Z,92.656
2022-12-01T02:49:02.143Z,92.869
2022-12-01T02:56:02.216Z,92.869
2022-12-01T03:00:01.821Z,93.214
2022-12-01T03:07:01.932Z,93.214
2022-12-01T03:14:01.389Z,93.46
2022-12-01T03:21:02.097Z,93.46
2022-12-01T03:28:20.658Z,93.574
2022-12-01T03:35:02.098Z,93.574
2022-12-01T03:42:01.439Z,93.581
2022-12-01T03:49:02.285Z,93.581
2022-12-01T03:56:02.066Z,93.376
2022-12-01T04:00:01.621Z,93.376
2022-12-01T04:07:02.299Z,93.632
2022-12-01T04:14:02.157Z,93.632
2022-12-01T04:21:01.881Z,93.815
2022-12-01T04:28:02.155Z,93.815
2022-12-01T04:35:01.923Z,93.603
2022-12-01T04:42:01.331Z,93.603
2022-12-01T04:49:01.961Z,93.256
2022-12-01T04:56:02.231Z,92.586
2022-12-01T05:00:01.793Z,92.586
2022-12-01T05:07:01.984Z,92.586
2022-12-01T05:14:01.812Z,91.934
2022-12-01T05:21:01.370Z,91.934
2022-12-01T05:28:02.209Z,91.346
2022-12-01T05:35:02.288Z,90.991
2022-12-01T05:42:01.539Z,90.991
2022-12-01T05:49:01.323Z,90.799
2022-12-01T05:56:02.139Z,90.799
2022-12-01T06:00:01.689Z,90.713
2022-12-01T06:07:01.755Z,90.713
2022-12-01T06:14:01.713Z,90.647
2022-12-01T06:21:01.712Z,90.647
2022-12-01T06:28:01.715Z,90.77
2022-12-01T06:35:01.622Z,90.77
2022-12-01T06:42:01.770Z,90.812
2022-12-01T06:49:01.412Z,90.812
2022-12-01T06:56:01.781Z,90.866
2022-12-01T07:00:01.610Z,90.866
2022-12-01T07:07:02.174Z,90.623
2022-12-01T07:14:02.231Z,90.623
2022-12-01T07:21:01.310Z,91.087
2022-12-01T07:28:01.455Z,91.087
2022-12-01T07:35:02.371Z,91.121
2022-12-01T07:42:01.412Z,91.121
2022-12-01T07:49:01.465Z,91.099
2022-12-01T07:56:05.672Z,91.011
2022-12-01T08:00:02.147Z,91.011
2022-12-01T08:07:02.007Z,91.011
2022-12-01T08:14:02.008Z,91.018
2022-12-01T08:21:01.858Z,90.809
2022-12-01T08:28:02.194Z,90.809
2022-12-01T08:35:01.588Z,91.097
2022-12-01T08:42:01.466Z,91.097
2022-12-01T08:49:01.722Z,90.47
2022-12-01T08:56:02.288Z,90.47
2022-12-01T09:00:01.912Z,90.656
2022-12-01T09:07:01.531Z,90.656
2022-12-01T09:14:01.559Z,90.589
2022-12-01T09:21:01.906Z,90.589
2022-12-01T09:28:01.564Z,90.75
2022-12-01T09:35:02.131Z,90.75
2022-12-01T09:42:04.895Z,90.604
2022-12-01T09:49:01.552Z,90.604
2022-12-01T09:56:08.575Z,90.448
2022-12-01T10:00:02.136Z,90.448
2022-12-01T10:07:01.911Z,90.725
2022-12-01T10:14:01.937Z,90.725
2022-12-01T10:21:01.996Z,90.639
2022-12-01T10:28:01.843Z,90.639
2022-12-01T10:35:01.640Z,90.3
2022-12-01T10:42:01.843Z,90.383
2022-12-01T10:49:01.665Z,90.383
2022-12-01T10:56:02.049Z,90.455
2022-12-01T11:00:01.596Z,90.455
2022-12-01T11:07:01.726Z,90.455
2022-12-01T11:14:01.808Z,90.789
2022-12-01T11:21:02.012Z,90.572
2022-12-01T11:28:01.625Z,90.572
2022-12-01T11:35:01.875Z,90.472
2022-12-01T11:42:02.220Z,90.472
2022-12-01T11:49:01.675Z,90.133
2022-12-01T11:56:01.870Z,90.133
2022-12-01T12:00:02.420Z,89.03
2022-12-01T12:07:01.919Z,89.03
2022-12-01T12:14:01.716Z,88.145
2022-12-01T12:21:02.092Z,88.145
2022-12-01T12:28:01.677Z,87.536
2022-12-01T12:35:01.508Z,87.536
2022-12-01T12:42:02.050Z,86.936
2022-12-01T12:49:19.355Z,86.936
2022-12-01T12:56:02.478Z,85.97
2022-12-01T13:00:02.051Z,85.97
2022-12-01T13:07:02.203Z,86.385
2022-12-01T13:14:01.641Z,86.385
2022-12-01T13:21:01.458Z,86.002
2022-12-01T13:28:02.061Z,86.002
2022-12-01T13:35:02.485Z,85.402
2022-12-01T13:42:02.091Z,85.281
2022-12-01T13:49:02.085Z,85.281
2022-12-01T13:56:01.666Z,84.486
2022-12-01T14:00:02.338Z,84.486
2022-12-01T14:07:01.813Z,84.486
2022-12-01T14:14:01.692Z,84.191
2022-12-01T14:21:01.379Z,83.804
2022-12-01T14:28:01.693Z,83.804
2022-12-01T14:35:02.020Z,83.247
2022-12-01T14:42:01.812Z,83.247
2022-12-01T14:49:01.747Z,83.522
2022-12-01T14:56:01.432Z,83.522
2022-12-01T15:00:01.962Z,82.988
2022-12-01T15:07:01.513Z,82.988
2022-12-01T15:14:02.194Z,82.868
2022-12-01T15:21:02.142Z,82.868
2022-12-01T15:28:01.798Z,82.788
2022-12-01T15:35:02.630Z,82.788
2022-12-01T15:42:01.785Z,82.667
2022-12-01T15:49:01.842Z,82.667
2022-12-01T15:56:02.267Z,83.093
2022-12-01T16:00:01.859Z,83.093
2022-12-01T16:07:01.814Z,83.415
2022-12-01T16:14:01.969Z,83.415
2022-12-01T16:21:01.508Z,83.023
2022-12-01T16:28:01.881Z,83.023
2022-12-01T16:35:02.750Z,83.22
2022-12-01T16:42:01.822Z,82.693
2022-12-01T16:49:01.497Z,82.693
2022-12-01T16:56:01.496Z,82.762
2022-12-01T17:00:02.190Z,82.762
2022-12-01T17:07:01.431Z,82.762
2022-12-01T17:14:01.738Z,82.443
2022-12-01T17:21:02.076Z,81.512
2022-12-01T17:28:02.054Z,81.512
2022-12-01T17:35:01.611Z,81.073
2022-12-01T17:42:02.188Z,81.073
2022-12-01T17:49:01.563Z,80.399
2022-12-01T17:56:01.814Z,80.399
2022-12-01T18:00:02.397Z,80.996
2022-12-01T18:07:02.185Z,80.996
2022-12-01T18:14:01.565Z,81.33
2022-12-01T18:21:02.022Z,81.33
2022-12-01T18:28:02.061Z,80.896
2022-12-01T18:35:01.870Z,80.896
2022-12-01T18:42:01.396Z,80.764
2022-12-01T18:49:01.717Z,80.764
2022-12-01T18:56:02.087Z,81.064
2022-12-01T19:00:01.644Z,81.064
2022-12-01T19:07:01.856Z,81.148
2022-12-01T19:14:01.399Z,81.148
2022-12-01T19:21:01.753Z,81.3
2022-12-01T19:28:02.149Z,81.3
2022-12-01T19:35:02.392Z,81.145
2022-12-01T19:42:01.880Z,81.033
2022-12-01T19:49:01.625Z,81.033
2022-12-01T19:56:01.668Z,81.347
2022-12-01T20:00:02.253Z,81.347
2022-12-01T20:07:01.520Z,80.962
2022-12-01T20:14:01.626Z,80.962
2022-12-01T20:21:02.304Z,80.325
2022-12-01T20:28:01.585Z,80.325
2022-12-01T20:35:01.654Z,80.07
2022-12-01T20:42:01.312Z,80.07
2022-12-01T20:49:02.044Z,79.768
2022-12-01T20:56:01.783Z,79.768
2022-12-01T21:00:02.391Z,80.184
2022-12-01T21:07:01.742Z,80.184
2022-12-01T21:14:01.550Z,80.268
2022-12-01T21:21:02.085Z,80.268
2022-12-01T21:28:01.743Z,79.65
2022-12-01T21:35:02.111Z,79.65
2022-12-01T21:42:01.512Z,79.415
2022-12-01T21:49:01.392Z,80.207
2022-12-01T21:56:01.400Z,80.207
2022-12-01T22:00:01.945Z,80.207
2022-12-01T22:07:01.319Z,80.083
2022-12-01T22:14:01.706Z,80.083
2022-12-01T22:21:01.354Z,80.068
2022-12-01T22:28:01.373Z,79.883
2022-12-01T22:35:02.231Z,79.883
2022-12-01T22:42:01.466Z,79.996
2022-12-01T22:49:01.981Z,79.996
2022-12-01T22:56:01.306Z,80.216
2022-12-01T23:00:01.929Z,80.216
2022-12-01T23:07:01.862Z,80.18
2022-12-01T23:14:02.201Z,80.18
2022-12-01T23:21:01.441Z,78.72
2022-12-01T23:28:01.839Z,78.72
2022-12-01T23:35:02.312Z,79.658
2022-12-01T23:42:02.285Z,79.658
2022-12-01T23:49:01.473Z,79.076
2022-12-01T23:56:01.950Z,79.076
